createdAt,value
2018-09-17T00:01:38.201Z,8.40
2018-09-17T00:04:06.452Z,7.13
2018-09-17T00:06:34.606Z,5.90
2018-09-17T00:09:02.905Z,6.87
2018-09-17T00:11:31.130Z,6.40
2018-09-17T00:13:59.342Z,7.90
2018-09-17T00:16:27.670Z,8.10
2018-09-17T00:18:56.118Z,7.27
2018-09-17T00:21:24.482Z,5.63
2018-09-17T00:23:52.665Z,9.63
2018-09-17T00:26:20.988Z,6.40
2018-09-17T00:28:49.382Z,6.10
2018-09-17T00:31:17.674Z,5.73
2018-09-17T00:33:45.922Z,8.03
2018-09-17T00:36:14.309Z,6.20
2018-09-17T00:38:42.636Z,7.87
2018-09-17T00:41:11.599Z,6.43
2018-09-17T00:43:39.961Z,6.30
2018-09-17T00:46:08.215Z,7.47
2018-09-17T00:48:36.431Z,6.90
2018-09-17T00:51:05.118Z,7.83
2018-09-17T00:53:33.665Z,6.00
2018-09-17T00:56:03.298Z,6.80
2018-09-17T00:58:31.815Z,8.83
2018-09-17T01:01:00.101Z,6.80
2018-09-17T01:03:28.306Z,8.20
2018-09-17T01:05:56.577Z,6.33
2018-09-17T01:08:24.858Z,6.30
2018-09-17T01:10:53.090Z,7.43
2018-09-17T01:13:21.369Z,9.47
2018-09-17T01:15:49.596Z,7.50
2018-09-17T01:18:17.878Z,6.17
2018-09-17T01:20:46.106Z,7.10
2018-09-17T01:23:14.469Z,6.07
2018-09-17T01:25:42.686Z,7.70
2018-09-17T01:28:10.978Z,8.00
2018-09-17T01:30:39.509Z,7.17
2018-09-17T01:33:07.753Z,6.57
2018-09-17T01:35:36.157Z,6.43
2018-09-17T01:38:04.878Z,7.50
2018-09-17T01:40:33.614Z,6.43
2018-09-17T01:43:01.800Z,6.43
2018-09-17T01:45:30.109Z,6.20
2018-09-17T01:47:58.437Z,6.73
2018-09-17T01:50:26.713Z,6.90
2018-09-17T01:52:55.118Z,8.77
2018-09-17T01:55:23.394Z,5.90
2018-09-17T01:57:51.614Z,7.03
2018-09-17T02:00:20.007Z,7.27
2018-09-17T02:02:48.333Z,6.40
2018-09-17T02:05:16.548Z,8.07
2018-09-17T02:07:44.761Z,6.53
2018-09-17T02:10:13.041Z,6.10
2018-09-17T02:12:41.937Z,7.50
2018-09-17T02:15:10.512Z,7.27
2018-09-17T02:17:38.797Z,6.17
2018-09-17T02:20:07.789Z,7.43
2018-09-17T02:22:36.063Z,5.77
2018-09-17T02:25:04.880Z,7.60
2018-09-17T02:27:33.255Z,7.37
2018-09-17T02:30:01.536Z,6.10
2018-09-17T02:32:29.774Z,7.30
2018-09-17T02:34:58.031Z,5.67
2018-09-17T02:37:26.762Z,6.23
2018-09-17T02:39:55.098Z,6.63
2018-09-17T02:42:23.349Z,6.20
2018-09-17T02:44:51.602Z,5.77
2018-09-17T02:47:20.011Z,6.27
2018-09-17T02:49:48.335Z,7.97
2018-09-17T02:52:16.631Z,6.57
2018-09-17T02:54:44.849Z,7.40
2018-09-17T02:57:13.152Z,8.83
2018-09-17T02:59:41.435Z,6.10
2018-09-17T03:02:10.672Z,8.07
2018-09-17T03:04:38.885Z,5.70
2018-09-17T03:07:07.223Z,6.27
2018-09-17T03:09:35.479Z,8.50
2018-09-17T03:12:03.832Z,7.70
2018-09-17T03:14:32.222Z,9.00
2018-09-17T03:17:08.395Z,6.07
2018-09-17T03:19:36.638Z,7.17
2018-09-17T03:22:04.944Z,7.03
2018-09-17T03:24:33.215Z,6.77
2018-09-17T03:27:01.400Z,6.53
2018-09-17T03:29:29.723Z,6.20
2018-09-17T03:31:58.022Z,7.70
2018-09-17T03:34:26.724Z,6.77
2018-09-17T03:36:54.940Z,6.97
2018-09-17T03:39:23.224Z,7.27
2018-09-17T03:41:51.451Z,6.43
2018-09-17T03:44:20.000Z,7.73
2018-09-17T03:46:48.331Z,6.90
2018-09-17T03:49:16.657Z,6.10
2018-09-17T03:51:45.034Z,6.70
2018-09-17T03:54:13.371Z,7.27
2018-09-17T03:56:41.775Z,8.97
2018-09-17T03:59:10.181Z,12.30
2018-09-17T04:01:38.560Z,10.67
2018-09-17T04:04:06.902Z,9.13
2018-09-17T04:06:35.242Z,6.60
2018-09-17T04:09:05.262Z,7.80
2018-09-17T04:11:33.727Z,7.20
2018-09-17T04:14:01.957Z,5.90
2018-09-17T04:16:30.223Z,6.67
2018-09-17T04:18:59.217Z,7.13
2018-09-17T04:21:27.567Z,8.50
2018-09-17T04:23:55.849Z,7.30
2018-09-17T04:26:24.111Z,6.90
2018-09-17T04:28:52.318Z,7.53
2018-09-17T04:31:20.537Z,6.73
2018-09-17T04:33:48.937Z,8.83
2018-09-17T04:36:17.163Z,7.03
2018-09-17T04:38:45.380Z,8.47
2018-09-17T04:41:13.597Z,8.73
2018-09-17T04:43:41.925Z,9.87
2018-09-17T04:46:10.829Z,8.20
2018-09-17T04:48:39.106Z,8.30
2018-09-17T04:51:07.319Z,9.27
2018-09-17T04:53:35.541Z,7.40
2018-09-17T04:56:03.833Z,7.70
2018-09-17T04:58:32.146Z,11.07
2018-09-17T05:01:00.370Z,9.63
2018-09-17T05:03:28.566Z,13.57
2018-09-17T05:05:56.881Z,8.37
2018-09-17T05:08:25.159Z,10.03
2018-09-17T05:10:53.374Z,8.03
2018-09-17T05:13:21.856Z,8.90
2018-09-17T05:15:51.018Z,11.10
2018-09-17T05:18:19.409Z,8.63
2018-09-17T05:20:47.920Z,9.83
2018-09-17T05:23:16.075Z,10.63
2018-09-17T05:25:44.353Z,11.83
2018-09-17T05:28:12.620Z,10.43
2018-09-17T05:30:40.853Z,9.77
2018-09-17T05:33:09.102Z,12.33
2018-09-17T05:35:37.399Z,8.03
2018-09-17T05:38:05.740Z,11.43
2018-09-17T05:40:34.163Z,9.27
2018-09-17T05:43:04.693Z,12.10
2018-09-17T05:45:33.245Z,18.97
2018-09-17T05:48:01.470Z,13.23
2018-09-17T05:50:29.732Z,11.33
2018-09-17T05:52:57.941Z,12.27
2018-09-17T05:55:26.337Z,9.93
2018-09-17T05:57:54.670Z,11.53
2018-09-17T06:00:22.873Z,12.50
2018-09-17T06:02:51.110Z,9.87
2018-09-17T06:05:19.422Z,11.93
2018-09-17T06:07:47.735Z,11.83
2018-09-17T06:10:17.012Z,12.17
2018-09-17T06:12:46.925Z,13.90
2018-09-17T06:15:15.626Z,10.50
2018-09-17T06:17:43.857Z,14.53
2018-09-17T06:20:12.176Z,13.40
2018-09-17T06:22:40.610Z,15.13
2018-09-17T06:25:08.849Z,13.00
2018-09-17T06:27:37.079Z,11.57
2018-09-17T06:30:06.019Z,14.03
2018-09-17T06:32:34.500Z,10.53
2018-09-17T06:35:02.764Z,10.03
2018-09-17T06:37:30.989Z,11.43
2018-09-17T06:39:59.186Z,10.73
2018-09-17T06:42:27.711Z,11.43
2018-09-17T06:44:56.005Z,11.33
2018-09-17T06:47:24.249Z,11.20
2018-09-17T06:49:52.468Z,11.57
2018-09-17T06:52:20.687Z,13.23
2018-09-17T06:54:49.098Z,9.87
2018-09-17T06:57:17.325Z,9.53
2018-09-17T06:59:45.552Z,11.43
2018-09-17T07:02:13.778Z,9.67
2018-09-17T07:04:42.129Z,10.07
2018-09-17T07:07:10.361Z,13.37
2018-09-17T07:09:38.606Z,9.50
2018-09-17T07:12:06.837Z,11.43
2018-09-17T07:14:35.119Z,9.87
2018-09-17T07:17:03.458Z,10.50
2018-09-17T07:19:31.685Z,10.87
2018-09-17T07:21:59.916Z,12.23
2018-09-17T07:24:28.183Z,11.83
2018-09-17T07:26:56.423Z,15.20
2018-09-17T07:29:24.908Z,12.13
2018-09-17T07:31:53.112Z,16.47
2018-09-17T07:34:21.328Z,9.77
2018-09-17T07:36:49.729Z,11.20
2018-09-17T07:39:17.953Z,11.50
2018-09-17T07:41:46.325Z,11.03
2018-09-17T07:44:14.549Z,13.60
2018-09-17T07:46:42.785Z,13.10
2018-09-17T07:49:11.113Z,10.73
2018-09-17T07:51:39.337Z,12.07
2018-09-17T07:54:07.553Z,12.27
2018-09-17T07:56:35.749Z,11.10
2018-09-17T07:59:04.642Z,11.57
2018-09-17T08:01:32.883Z,10.30
2018-09-17T08:04:01.117Z,10.63
2018-09-17T08:06:29.385Z,11.12
2018-09-17T08:08:57.920Z,10.45
2018-09-17T08:11:26.332Z,10.68
2018-09-17T08:13:54.634Z,12.05
2018-09-17T08:16:22.870Z,10.78
2018-09-17T08:18:51.125Z,16.55
2018-09-17T08:21:19.643Z,10.38
2018-09-17T08:23:48.010Z,8.55
2018-09-17T08:26:16.285Z,9.98
2018-09-17T08:28:44.660Z,9.73
2018-09-17T08:31:13.257Z,8.10
2018-09-17T08:33:42.414Z,8.85
2018-09-17T08:36:11.051Z,8.28
2018-09-17T08:38:39.345Z,9.40
2018-09-17T08:41:07.781Z,7.65
2018-09-17T08:43:36.080Z,12.13
2018-09-17T08:46:04.419Z,8.00
2018-09-17T08:48:32.846Z,6.50
2018-09-17T08:51:01.072Z,7.67
2018-09-17T08:53:29.292Z,6.10
2018-09-17T08:55:59.669Z,8.00
2018-09-17T08:58:33.485Z,7.85
2018-09-17T09:01:03.633Z,9.63
2018-09-17T09:03:37.437Z,8.00
2018-09-17T09:06:11.230Z,8.13
2018-09-17T09:08:39.461Z,7.78
2018-09-17T09:11:13.163Z,7.12
2018-09-17T09:13:46.857Z,6.83
2018-09-17T09:16:15.089Z,6.70
2018-09-17T09:18:43.316Z,5.97
2018-09-17T09:21:11.653Z,6.50
2018-09-17T09:23:40.602Z,6.05
2018-09-17T09:26:08.872Z,6.87
2018-09-17T09:28:37.031Z,6.60
2018-09-17T09:31:05.322Z,6.17
2018-09-17T09:33:33.732Z,5.97
2018-09-17T09:36:01.967Z,7.50
2018-09-17T09:38:30.194Z,7.08
2018-09-17T09:40:58.411Z,5.97
2018-09-17T09:43:27.197Z,5.85
2018-09-17T09:45:55.731Z,4.80
2018-09-17T09:48:23.954Z,4.50
2018-09-17T09:50:52.193Z,7.87
2018-09-17T09:53:20.517Z,5.00
2018-09-17T09:55:48.878Z,5.30
2018-09-17T09:58:17.118Z,5.62
2018-09-17T10:00:50.790Z,5.25
2018-09-17T10:03:24.456Z,5.28
2018-09-17T10:05:52.749Z,4.30
2018-09-17T10:08:20.985Z,6.80
2018-09-17T10:10:54.705Z,6.03
2018-09-17T10:13:28.157Z,4.90
2018-09-17T10:15:57.582Z,4.10
2018-09-17T10:18:31.197Z,5.45
2018-09-17T10:20:59.751Z,4.65
2018-09-17T10:23:28.265Z,6.83
2018-09-17T10:25:57.054Z,6.40
2018-09-17T10:28:25.973Z,3.62
2018-09-17T10:30:54.273Z,3.25
2018-09-17T10:33:22.482Z,4.30
2018-09-17T10:35:50.748Z,4.85
2018-09-17T10:38:18.961Z,3.17
2018-09-17T10:40:47.172Z,4.72
2018-09-17T10:43:15.408Z,5.80
2018-09-17T10:45:43.651Z,3.20
2018-09-17T10:48:11.982Z,5.10
2018-09-17T10:50:40.221Z,3.40
2018-09-17T10:53:08.750Z,3.50
2018-09-17T10:55:36.977Z,5.28
2018-09-17T10:58:05.858Z,6.20
2018-09-17T11:00:34.558Z,5.05
2018-09-17T11:03:02.902Z,3.42
2018-09-17T11:05:31.101Z,5.60
2018-09-17T11:07:59.314Z,3.20
2018-09-17T11:10:27.758Z,5.62
2018-09-17T11:12:56.159Z,3.77
2018-09-17T11:15:28.667Z,4.97
2018-09-17T11:17:57.201Z,5.67
2018-09-17T11:20:25.472Z,5.65
2018-09-17T11:22:53.721Z,3.12
2018-09-17T11:25:21.933Z,4.90
2018-09-17T11:27:50.328Z,3.20
2018-09-17T11:30:19.022Z,4.20
2018-09-17T11:32:47.966Z,2.77
2018-09-17T11:35:16.357Z,4.97
2018-09-17T11:37:44.667Z,6.08
2018-09-17T11:40:14.046Z,4.28
2018-09-17T11:42:43.795Z,3.75
2018-09-17T11:45:12.314Z,4.95
2018-09-17T11:47:40.644Z,5.05
2018-09-17T11:50:09.012Z,4.50
2018-09-17T11:52:37.237Z,2.90
2018-09-17T11:55:05.642Z,3.17
2018-09-17T11:57:33.891Z,4.12
2018-09-17T12:00:02.158Z,3.40
2018-09-17T12:02:32.272Z,3.15
2018-09-17T12:05:07.786Z,3.77
2018-09-17T12:07:42.104Z,5.40
2018-09-17T12:10:11.461Z,3.33
2018-09-17T12:12:40.489Z,3.25
2018-09-17T12:15:09.585Z,3.20
2018-09-17T12:17:37.837Z,8.13
2018-09-17T12:20:06.170Z,3.27
2018-09-17T12:22:35.195Z,3.77
2018-09-17T12:25:03.436Z,3.72
2018-09-17T12:27:31.645Z,4.20
2018-09-17T12:29:59.900Z,5.15
2018-09-17T12:32:28.175Z,3.08
2018-09-17T12:34:56.605Z,4.80
2018-09-17T12:37:25.164Z,3.12
2018-09-17T12:39:53.414Z,2.98
2018-09-17T12:42:21.646Z,2.98
2018-09-17T12:44:50.429Z,6.58
2018-09-17T12:47:19.222Z,3.95
2018-09-17T12:49:47.479Z,3.67
2018-09-17T12:52:15.762Z,3.15
2018-09-17T12:54:43.973Z,3.27
2018-09-17T12:57:13.117Z,3.05
2018-09-17T12:59:41.322Z,3.58
2018-09-17T13:02:09.599Z,3.80
2018-09-17T13:04:37.833Z,5.90
2018-09-17T13:07:06.093Z,7.22
2018-09-17T13:09:34.425Z,3.75
2018-09-17T13:12:02.704Z,3.67
2018-09-17T13:14:30.957Z,3.55
2018-09-17T13:16:59.464Z,5.10
2018-09-17T13:19:28.589Z,8.60
2018-09-17T13:21:56.941Z,5.95
2018-09-17T13:24:25.284Z,3.35
2018-09-17T13:26:53.515Z,3.40
2018-09-17T13:29:21.801Z,3.20
2018-09-17T13:31:50.568Z,4.33
2018-09-17T13:34:19.018Z,4.97
2018-09-17T13:36:47.383Z,3.30
2018-09-17T13:39:15.711Z,5.47
2018-09-17T13:41:43.993Z,3.45
2018-09-17T13:44:13.052Z,3.40
2018-09-17T13:46:41.463Z,3.15
2018-09-17T13:49:09.762Z,3.92
2018-09-17T13:51:38.101Z,3.87
2018-09-17T13:54:06.364Z,4.30
2018-09-17T13:56:34.819Z,6.05
2018-09-17T13:59:03.219Z,2.90
2018-09-17T14:01:31.446Z,3.25
2018-09-17T14:03:59.749Z,2.83
2018-09-17T14:06:27.985Z,2.95
2018-09-17T14:08:56.434Z,3.20
2018-09-17T14:11:24.740Z,4.42
2018-09-17T14:13:52.977Z,2.83
2018-09-17T14:16:26.738Z,6.50
2018-09-17T14:18:55.081Z,3.12
2018-09-17T14:21:23.527Z,3.52
2018-09-17T14:23:51.764Z,5.17
2018-09-17T14:26:20.409Z,3.83
2018-09-17T14:28:48.608Z,3.75
2018-09-17T14:31:21.211Z,4.87
2018-09-17T14:33:50.050Z,3.72
2018-09-17T14:36:18.765Z,3.92
2018-09-17T14:38:47.011Z,4.85
2018-09-17T14:41:15.285Z,3.35
2018-09-17T14:43:43.690Z,4.87
2018-09-17T14:46:11.911Z,3.33
2018-09-17T14:48:40.256Z,5.33
2018-09-17T14:51:08.621Z,5.28
2018-09-17T14:53:37.116Z,4.70
2018-09-17T14:56:05.541Z,4.72
2018-09-17T14:58:34.012Z,4.33
2018-09-17T15:01:02.878Z,3.50
2018-09-17T15:03:31.265Z,3.42
2018-09-17T15:05:59.713Z,3.45
2018-09-17T15:08:28.171Z,3.27
2018-09-17T15:10:56.507Z,4.83
2018-09-17T15:13:24.751Z,3.98
2018-09-17T15:15:59.679Z,3.15
2018-09-17T15:18:28.265Z,4.22
2018-09-17T15:20:56.581Z,5.80
2018-09-17T15:23:24.835Z,5.92
2018-09-17T15:25:53.089Z,4.42
2018-09-17T15:28:21.332Z,4.33
2018-09-17T15:30:49.617Z,4.00
2018-09-17T15:33:17.869Z,4.20
2018-09-17T15:35:46.142Z,3.22
2018-09-17T15:38:14.419Z,3.65
2018-09-17T15:40:42.766Z,9.53
2018-09-17T15:43:19.244Z,4.92
2018-09-17T15:45:48.104Z,3.55
2018-09-17T15:48:17.305Z,6.70
2018-09-17T15:50:47.269Z,3.92
2018-09-17T15:53:15.761Z,7.33
2018-09-17T15:55:44.143Z,5.05
2018-09-17T15:58:13.603Z,5.05
2018-09-17T16:00:41.940Z,4.10
2018-09-17T16:03:10.325Z,5.40
2018-09-17T16:05:38.539Z,3.85
2018-09-17T16:08:06.997Z,3.87
2018-09-17T16:10:35.395Z,6.37
2018-09-17T16:13:04.424Z,7.03
2018-09-17T16:15:32.803Z,5.75
2018-09-17T16:18:01.333Z,4.33
2018-09-17T16:20:29.677Z,4.00
2018-09-17T16:22:58.858Z,8.05
2018-09-17T16:25:27.293Z,5.22
2018-09-17T16:27:55.672Z,3.17
2018-09-17T16:30:23.915Z,7.37
2018-09-17T16:32:52.124Z,5.10
2018-09-17T16:35:20.678Z,5.37
2018-09-17T16:37:49.651Z,4.78
2018-09-17T16:40:17.909Z,3.50
2018-09-17T16:42:46.165Z,3.80
2018-09-17T16:45:14.491Z,5.17
2018-09-17T16:47:43.012Z,4.20
2018-09-17T16:50:11.209Z,6.85
2018-09-17T16:52:39.479Z,6.00
2018-09-17T16:55:07.855Z,5.42
2018-09-17T16:57:36.074Z,3.87
2018-09-17T17:00:04.457Z,6.33
2018-09-17T17:02:32.759Z,9.65
2018-09-17T17:05:01.157Z,4.20
2018-09-17T17:07:29.240Z,4.08
2018-09-17T17:09:57.645Z,9.63
2018-09-17T17:12:25.945Z,17.70
2018-09-17T17:14:54.316Z,14.95
2018-09-17T17:17:22.848Z,13.48
2018-09-17T17:19:51.079Z,16.90
2018-09-17T17:22:19.514Z,17.05
2018-09-17T17:24:47.865Z,9.83
2018-09-17T17:27:16.069Z,7.85
2018-09-17T17:29:44.294Z,4.37
2018-09-17T17:32:12.649Z,6.30
2018-09-17T17:34:42.005Z,4.12
2018-09-17T17:37:10.382Z,5.78
2018-09-17T17:39:39.642Z,4.47
2018-09-17T17:42:07.728Z,4.67
2018-09-17T17:44:35.933Z,4.22
2018-09-17T17:47:04.208Z,3.90
2018-09-17T17:49:32.469Z,6.00
2018-09-17T17:52:00.802Z,4.23
2018-09-17T17:54:28.934Z,5.37
2018-09-17T17:56:57.401Z,3.97
2018-09-17T17:59:25.681Z,5.17
2018-09-17T18:01:53.925Z,4.40
2018-09-17T18:04:24.157Z,4.40
2018-09-17T18:06:52.325Z,6.00
2018-09-17T18:09:20.806Z,4.83
2018-09-17T18:11:50.045Z,4.93
2018-09-17T18:14:18.354Z,6.30
2018-09-17T18:16:46.548Z,6.30
2018-09-17T18:19:15.103Z,7.73
2018-09-17T18:21:43.495Z,7.63
2018-09-17T18:24:11.741Z,5.80
2018-09-17T18:26:39.995Z,4.83
2018-09-17T18:29:08.172Z,5.63
2018-09-17T18:31:36.391Z,5.87
2018-09-17T18:34:04.789Z,6.93
2018-09-17T18:36:33.038Z,10.90
2018-09-17T18:39:01.361Z,12.97
2018-09-17T18:41:29.457Z,7.57
2018-09-17T18:43:58.732Z,4.73
2018-09-17T18:46:27.176Z,4.53
2018-09-17T18:48:55.400Z,4.13
2018-09-17T18:51:23.601Z,8.00
2018-09-17T18:53:51.830Z,9.33
2018-09-17T18:56:20.341Z,5.93
2018-09-17T18:58:48.661Z,7.00
2018-09-17T19:01:16.901Z,9.17
2018-09-17T19:03:45.154Z,6.93
2018-09-17T19:06:13.379Z,8.33
2018-09-17T19:08:42.123Z,12.07
2018-09-17T19:11:10.354Z,5.83
2018-09-17T19:13:38.771Z,9.70
2018-09-17T19:16:07.343Z,8.30
2018-09-17T19:18:35.626Z,16.27
2018-09-17T19:21:04.054Z,6.07
2018-09-17T19:23:37.721Z,5.63
2018-09-17T19:26:05.984Z,5.13
2018-09-17T19:28:39.668Z,5.03
2018-09-17T19:31:07.875Z,16.60
2018-09-17T19:33:36.078Z,5.67
2018-09-17T19:36:04.670Z,7.23
2018-09-17T19:38:38.229Z,7.03
2018-09-17T19:41:06.705Z,8.67
2018-09-17T19:43:47.810Z,5.17
2018-09-17T19:46:18.098Z,7.97
2018-09-17T19:48:47.148Z,6.77
2018-09-17T19:51:23.073Z,6.70
2018-09-17T19:53:51.385Z,5.83
2018-09-17T19:56:20.233Z,5.50
2018-09-17T19:58:54.726Z,5.03
2018-09-17T20:01:25.712Z,4.77
2018-09-17T20:03:54.785Z,5.77
2018-09-17T20:06:29.561Z,12.13
2018-09-17T20:08:58.672Z,5.53
2018-09-17T20:11:27.299Z,5.17
2018-09-17T20:13:56.635Z,5.43
2018-09-17T20:16:26.746Z,9.40
2018-09-17T20:18:55.101Z,5.63
2018-09-17T20:21:30.445Z,6.43
2018-09-17T20:23:58.763Z,5.23
2018-09-17T20:26:27.172Z,7.10
2018-09-17T20:28:58.352Z,5.67
2018-09-17T20:31:27.445Z,6.27
2018-09-17T20:33:56.175Z,6.53
2018-09-17T20:36:31.463Z,5.60
2018-09-17T20:39:00.019Z,6.37
2018-09-17T20:41:28.254Z,6.17
2018-09-17T20:43:56.790Z,8.63
2018-09-17T20:46:25.855Z,15.60
2018-09-17T20:48:54.158Z,5.87
2018-09-17T20:51:22.543Z,7.57
2018-09-17T20:53:50.769Z,5.93
2018-09-17T20:56:19.003Z,8.10
2018-09-17T20:58:47.561Z,7.77
2018-09-17T21:01:23.397Z,6.03
2018-09-17T21:03:51.902Z,6.37
2018-09-17T21:06:20.263Z,9.53
2018-09-17T21:08:48.614Z,5.67
2018-09-17T21:11:16.859Z,6.63
2018-09-17T21:13:45.205Z,7.07
2018-09-17T21:16:13.515Z,7.60
2018-09-17T21:18:41.976Z,12.27
2018-09-17T21:21:10.739Z,7.03
2018-09-17T21:23:39.068Z,7.03
2018-09-17T21:26:07.441Z,8.87
2018-09-17T21:28:35.775Z,9.60
2018-09-17T21:31:04.023Z,8.30
2018-09-17T21:33:32.238Z,7.47
2018-09-17T21:36:00.592Z,6.30
2018-09-17T21:38:29.026Z,11.63
2018-09-17T21:40:58.012Z,5.63
2018-09-17T21:43:26.313Z,9.53
2018-09-17T21:45:54.604Z,7.40
2018-09-17T21:48:23.168Z,6.23
2018-09-17T21:50:51.457Z,9.40
2018-09-17T21:53:20.131Z,8.53
2018-09-17T21:55:48.627Z,8.83
2018-09-17T21:58:16.948Z,9.17
2018-09-17T22:00:50.754Z,6.00
2018-09-17T22:03:19.079Z,8.80
2018-09-17T22:05:47.514Z,7.43
2018-09-17T22:08:15.803Z,12.93
2018-09-17T22:10:44.038Z,6.10
2018-09-17T22:13:12.451Z,13.43
2018-09-17T22:15:40.867Z,5.70
2018-09-17T22:18:09.141Z,5.67
2018-09-17T22:20:37.392Z,9.77
2018-09-17T22:23:05.809Z,8.03
2018-09-17T22:25:34.275Z,6.10
2018-09-17T22:28:03.161Z,6.93
2018-09-17T22:30:31.548Z,8.33
2018-09-17T22:33:00.022Z,8.00
2018-09-17T22:35:28.401Z,5.10
2018-09-17T22:37:56.793Z,6.93
2018-09-17T22:40:25.191Z,7.17
2018-09-17T22:42:53.473Z,8.07
2018-09-17T22:45:21.841Z,5.57
2018-09-17T22:47:50.357Z,6.47
2018-09-17T22:50:18.718Z,6.83
2018-09-17T22:52:47.118Z,7.00
2018-09-17T22:55:15.722Z,9.90
2018-09-17T22:57:44.238Z,6.20
2018-09-17T23:00:12.687Z,8.17
2018-09-17T23:02:41.146Z,6.77
2018-09-17T23:05:09.520Z,8.30
2018-09-17T23:07:37.741Z,7.03
2018-09-17T23:10:07.362Z,7.13
2018-09-17T23:12:35.726Z,6.30
2018-09-17T23:15:03.980Z,8.67
2018-09-17T23:17:32.213Z,7.77
2018-09-17T23:20:00.515Z,9.83
2018-09-17T23:22:29.049Z,8.10
2018-09-17T23:24:57.344Z,9.00
2018-09-17T23:27:25.581Z,7.37
2018-09-17T23:29:53.806Z,8.07
2018-09-17T23:32:22.032Z,7.80
2018-09-17T23:34:50.338Z,7.43
2018-09-17T23:37:19.058Z,5.60
2018-09-17T23:39:47.316Z,8.90
2018-09-17T23:42:15.537Z,5.90
2018-09-17T23:44:43.927Z,7.27
2018-09-17T23:47:12.230Z,8.73
2018-09-17T23:49:40.754Z,8.43
2018-09-17T23:52:08.986Z,7.73
2018-09-17T23:54:37.250Z,6.97
2018-09-17T23:57:05.590Z,7.87
2018-09-17T23:59:33.902Z,8.73
